createdAt,value
2024-02-28T00:01:17.142Z,8.50
2024-02-28T00:04:01.987Z,9.55
2024-02-28T00:06:45.698Z,9.38
2024-02-28T00:09:29.256Z,9.13
2024-02-28T00:12:13.098Z,7.53
2024-02-28T00:14:56.485Z,8.50
2024-02-28T00:17:42.351Z,7.78
2024-02-28T00:20:28.464Z,7.90
2024-02-28T00:23:11.890Z,7.80
2024-02-28T00:25:55.294Z,8.35
2024-02-28T00:28:39.157Z,7.03
2024-02-28T00:31:23.232Z,6.63
2024-02-28T00:34:07.880Z,6.30
2024-02-28T00:36:56.227Z,6.82
2024-02-28T00:39:40.361Z,6.43
2024-02-28T00:42:24.526Z,6.43
2024-02-28T00:45:10.804Z,7.05
2024-02-28T00:47:56.086Z,6.60
2024-02-28T00:50:39.719Z,7.32
2024-02-28T00:53:24.928Z,6.72
2024-02-28T00:56:08.361Z,7.07
2024-02-28T00:58:51.920Z,7.13
2024-02-28T01:01:35.493Z,7.50
2024-02-28T01:04:18.859Z,7.80
2024-02-28T01:07:02.499Z,8.18
2024-02-28T01:09:47.360Z,7.47
2024-02-28T01:12:31.010Z,7.68
2024-02-28T01:15:14.426Z,8.00
2024-02-28T01:17:57.969Z,7.93
2024-02-28T01:20:41.350Z,7.53
2024-02-28T01:23:25.210Z,9.45
2024-02-28T01:26:10.114Z,8.60
2024-02-28T01:28:53.642Z,8.80
2024-02-28T01:31:37.116Z,9.02
2024-02-28T01:34:21.021Z,8.77
2024-02-28T01:37:04.500Z,8.13
2024-02-28T01:39:47.964Z,7.13
2024-02-28T01:42:32.927Z,7.43
2024-02-28T01:45:17.002Z,7.38
2024-02-28T01:48:00.677Z,7.90
2024-02-28T01:50:44.813Z,8.60
2024-02-28T01:53:28.779Z,7.93
2024-02-28T01:56:13.828Z,6.72
2024-02-28T01:59:00.268Z,7.60
2024-02-28T02:01:45.222Z,8.85
2024-02-28T02:04:28.797Z,8.25
2024-02-28T02:07:12.501Z,7.75
2024-02-28T02:09:57.607Z,8.02
2024-02-28T02:12:41.033Z,8.63
2024-02-28T02:15:26.061Z,8.15
2024-02-28T02:18:09.653Z,7.00
2024-02-28T02:20:56.824Z,6.65
2024-02-28T02:23:42.704Z,7.70
2024-02-28T02:26:26.122Z,7.32
2024-02-28T02:29:10.695Z,7.10
2024-02-28T02:31:54.012Z,7.53
2024-02-28T02:34:37.420Z,7.40
2024-02-28T02:37:21.050Z,6.68
2024-02-28T02:40:06.727Z,7.15
2024-02-28T02:42:50.174Z,7.85
2024-02-28T02:45:33.639Z,6.13
2024-02-28T02:48:17.170Z,6.90
2024-02-28T02:51:00.619Z,7.07
2024-02-28T02:53:44.009Z,6.75
2024-02-28T02:56:29.000Z,6.95
2024-02-28T02:59:12.756Z,6.20
2024-02-28T03:01:56.322Z,7.60
2024-02-28T03:04:39.941Z,6.68
2024-02-28T03:07:23.626Z,6.32
2024-02-28T03:10:08.152Z,7.07
2024-02-28T03:12:53.222Z,7.15
2024-02-28T03:15:36.703Z,6.50
2024-02-28T03:18:20.271Z,7.00
2024-02-28T03:21:04.307Z,7.10
2024-02-28T03:23:47.844Z,6.93
2024-02-28T03:26:31.436Z,6.90
2024-02-28T03:29:16.366Z,6.72
2024-02-28T03:32:01.235Z,6.07
2024-02-28T03:34:44.987Z,7.72
2024-02-28T03:37:28.438Z,6.97
2024-02-28T03:40:12.318Z,6.35
2024-02-28T03:42:56.016Z,6.78
2024-02-28T03:45:41.993Z,8.18
2024-02-28T03:48:25.445Z,6.60
2024-02-28T03:51:08.940Z,6.95
2024-02-28T03:53:52.329Z,6.07
2024-02-28T03:56:36.421Z,6.50
2024-02-28T03:59:20.104Z,6.25
2024-02-28T04:02:05.013Z,6.55
2024-02-28T04:04:48.412Z,6.50
2024-02-28T04:07:31.802Z,6.25
2024-02-28T04:10:16.708Z,6.75
2024-02-28T04:13:00.524Z,7.72
2024-02-28T04:15:44.003Z,8.50
2024-02-28T04:18:28.958Z,8.07
2024-02-28T04:21:12.402Z,9.55
2024-02-28T04:23:56.165Z,8.15
2024-02-28T04:26:39.596Z,7.25
2024-02-28T04:29:23.309Z,6.78
2024-02-28T04:32:07.304Z,6.88
2024-02-28T04:34:52.039Z,6.72
2024-02-28T04:37:35.985Z,7.07
2024-02-28T04:40:19.830Z,6.82
2024-02-28T04:43:03.393Z,6.38
2024-02-28T04:45:47.128Z,5.93
2024-02-28T04:48:30.701Z,6.75
2024-02-28T04:51:19.218Z,6.60
2024-02-28T04:54:02.900Z,7.97
2024-02-28T04:56:47.535Z,8.93
2024-02-28T04:59:31.584Z,9.55
2024-02-28T05:02:15.561Z,7.57
2024-02-28T05:04:59.484Z,8.90
2024-02-28T05:07:44.360Z,9.70
2024-02-28T05:10:28.048Z,10.55
2024-02-28T05:13:11.589Z,10.52
2024-02-28T05:15:55.055Z,9.07
2024-02-28T05:18:38.505Z,11.55
2024-02-28T05:21:22.157Z,10.70
2024-02-28T05:24:07.998Z,9.85
2024-02-28T05:26:51.490Z,11.07
2024-02-28T05:29:35.064Z,10.20
2024-02-28T05:32:18.922Z,10.02
2024-02-28T05:35:02.407Z,10.82
2024-02-28T05:37:47.923Z,9.23
2024-02-28T05:40:32.784Z,9.23
2024-02-28T05:43:16.138Z,12.18
2024-02-28T05:46:00.013Z,10.15
2024-02-28T05:48:43.861Z,9.38
2024-02-28T05:51:27.437Z,8.00
2024-02-28T05:54:10.890Z,7.97
2024-02-28T05:56:55.891Z,8.10
2024-02-28T05:59:39.314Z,8.65
2024-02-28T06:02:23.003Z,9.50
2024-02-28T06:05:07.167Z,9.88
2024-02-28T06:07:50.647Z,10.68
2024-02-28T06:10:34.025Z,10.27
2024-02-28T06:13:19.314Z,10.88
2024-02-28T06:16:03.202Z,10.70
2024-02-28T06:18:47.350Z,10.43
2024-02-28T06:21:31.607Z,9.95
2024-02-28T06:24:15.011Z,10.30
2024-02-28T06:26:58.765Z,12.50
2024-02-28T06:29:43.679Z,10.70
2024-02-28T06:32:27.199Z,10.88
2024-02-28T06:35:11.394Z,10.70
2024-02-28T06:37:54.836Z,11.48
2024-02-28T06:40:39.181Z,10.63
2024-02-28T06:43:22.601Z,9.95
2024-02-28T06:46:07.821Z,10.32
2024-02-28T06:48:51.219Z,10.95
2024-02-28T06:51:34.795Z,10.25
2024-02-28T06:54:18.456Z,11.25
2024-02-28T06:57:01.885Z,11.02
2024-02-28T06:59:45.311Z,11.40
2024-02-28T07:02:30.205Z,10.93
2024-02-28T07:05:13.817Z,10.10
2024-02-28T07:07:57.509Z,12.48
2024-02-28T07:10:44.533Z,11.82
2024-02-28T07:13:28.372Z,10.68
2024-02-28T07:16:11.967Z,10.40
2024-02-28T07:18:57.226Z,13.25
2024-02-28T07:21:40.664Z,12.23
2024-02-28T07:24:24.748Z,14.40
2024-02-28T07:27:08.402Z,12.27
2024-02-28T07:29:51.870Z,11.93
2024-02-28T07:32:36.292Z,10.93
2024-02-28T07:35:21.977Z,11.40
2024-02-28T07:38:05.688Z,11.40
2024-02-28T07:40:49.298Z,12.30
2024-02-28T07:43:37.982Z,12.10
2024-02-28T07:46:21.733Z,10.95
2024-02-28T07:49:05.397Z,11.02
2024-02-28T07:51:50.727Z,9.40
2024-02-28T07:54:34.250Z,10.50
2024-02-28T07:57:17.944Z,11.38
2024-02-28T08:00:01.930Z,11.98
2024-02-28T08:02:45.353Z,14.13
2024-02-28T08:05:28.837Z,11.88
2024-02-28T08:08:14.037Z,11.55
2024-02-28T08:10:57.466Z,10.90
2024-02-28T08:13:40.864Z,11.55
2024-02-28T08:16:24.228Z,9.50
2024-02-28T08:19:08.263Z,10.57
2024-02-28T08:21:52.073Z,12.80
2024-02-28T08:24:36.939Z,11.82
2024-02-28T08:27:20.643Z,11.73
2024-02-28T08:30:04.371Z,11.85
2024-02-28T08:32:47.782Z,12.48
2024-02-28T08:35:31.225Z,11.82
2024-02-28T08:38:14.994Z,11.23
2024-02-28T08:41:00.265Z,12.38
2024-02-28T08:43:43.619Z,11.50
2024-02-28T08:46:27.233Z,11.18
2024-02-28T08:49:10.667Z,12.00
2024-02-28T08:51:54.436Z,12.32
2024-02-28T08:54:38.244Z,10.60
2024-02-28T08:57:24.707Z,11.43
2024-02-28T09:00:10.553Z,9.82
2024-02-28T09:02:55.350Z,11.15
2024-02-28T09:05:38.744Z,11.95
2024-02-28T09:08:22.120Z,10.80
2024-02-28T09:11:06.492Z,11.77
2024-02-28T09:13:51.759Z,11.30
2024-02-28T09:16:35.477Z,11.38
2024-02-28T09:19:19.575Z,9.95
2024-02-28T09:22:03.072Z,9.75
2024-02-28T09:24:47.210Z,10.05
2024-02-28T09:27:30.559Z,11.52
2024-02-28T09:30:16.120Z,9.73
2024-02-28T09:32:59.877Z,9.55
2024-02-28T09:35:43.901Z,11.27
2024-02-28T09:38:27.323Z,11.00
2024-02-28T09:41:16.811Z,10.10
2024-02-28T09:44:00.515Z,10.00
2024-02-28T09:46:46.697Z,10.77
2024-02-28T09:49:33.555Z,10.30
2024-02-28T09:52:17.313Z,10.80
2024-02-28T09:55:00.914Z,10.18
2024-02-28T09:57:49.010Z,10.52
2024-02-28T10:00:32.936Z,10.85
2024-02-28T10:03:20.912Z,10.95
2024-02-28T10:06:05.951Z,11.10
2024-02-28T10:08:50.299Z,11.07
2024-02-28T10:11:34.526Z,12.60
2024-02-28T10:14:20.908Z,12.43
2024-02-28T10:17:04.339Z,12.73
2024-02-28T10:19:50.033Z,12.02
2024-02-28T10:22:37.127Z,11.45
2024-02-28T10:25:21.218Z,11.05
2024-02-28T10:28:04.856Z,9.70
2024-02-28T10:30:48.379Z,9.70
2024-02-28T10:33:34.600Z,10.50
2024-02-28T10:36:19.846Z,9.90
2024-02-28T10:39:03.859Z,11.13
2024-02-28T10:41:50.056Z,11.55
2024-02-28T10:44:34.814Z,10.50
2024-02-28T10:47:18.700Z,10.07
2024-02-28T10:50:02.153Z,11.13
2024-02-28T10:52:51.742Z,10.02
2024-02-28T10:55:36.600Z,10.23
2024-02-28T10:58:24.524Z,10.75
2024-02-28T11:01:08.468Z,9.50
2024-02-28T11:03:53.247Z,10.30
2024-02-28T11:06:36.969Z,9.25
2024-02-28T11:09:26.988Z,12.35
2024-02-28T11:12:27.039Z,9.85
2024-02-28T11:15:19.076Z,10.90
2024-02-28T11:18:10.933Z,9.15
2024-02-28T11:20:54.786Z,9.45
2024-02-28T11:23:39.180Z,9.00
2024-02-28T11:26:24.178Z,8.88
2024-02-28T11:29:10.690Z,10.82
2024-02-28T11:31:55.258Z,9.90
2024-02-28T11:34:40.717Z,9.88
2024-02-28T11:37:24.988Z,11.75
2024-02-28T11:40:11.219Z,8.90
2024-02-28T11:42:57.638Z,12.73
2024-02-28T11:45:42.917Z,10.82
2024-02-28T11:48:27.973Z,11.43
2024-02-28T11:51:11.433Z,11.18
2024-02-28T11:53:54.857Z,10.48
2024-02-28T11:56:38.674Z,10.65
2024-02-28T11:59:23.678Z,13.20
2024-02-28T12:02:14.707Z,12.10
2024-02-28T12:05:02.418Z,11.15
2024-02-28T12:07:45.801Z,10.65
2024-02-28T12:10:29.635Z,9.82
2024-02-28T12:13:14.054Z,9.75
2024-02-28T12:15:59.063Z,8.93
2024-02-28T12:18:43.614Z,9.77
2024-02-28T12:21:27.648Z,10.18
2024-02-28T12:24:12.377Z,10.20
2024-02-28T12:26:55.836Z,10.27
2024-02-28T12:29:39.258Z,10.93
2024-02-28T12:32:24.115Z,10.98
2024-02-28T12:35:08.551Z,10.55
2024-02-28T12:37:51.884Z,11.77
2024-02-28T12:40:35.563Z,10.18
2024-02-28T12:43:19.029Z,12.35
2024-02-28T12:46:03.146Z,11.63
2024-02-28T12:48:48.742Z,11.80
2024-02-28T12:51:40.106Z,10.80
2024-02-28T12:54:24.080Z,10.35
2024-02-28T12:57:09.841Z,11.68
2024-02-28T12:59:53.257Z,12.25
2024-02-28T13:02:36.745Z,12.02
2024-02-28T13:05:21.976Z,12.32
2024-02-28T13:08:05.891Z,13.35
2024-02-28T13:10:49.349Z,12.70
2024-02-28T13:13:32.745Z,13.40
2024-02-28T13:16:16.467Z,13.95
2024-02-28T13:18:59.911Z,12.40
2024-02-28T13:21:44.891Z,11.43
2024-02-28T13:24:28.349Z,12.20
2024-02-28T13:27:12.132Z,13.73
2024-02-28T13:29:55.600Z,13.63
2024-02-28T13:32:38.982Z,13.55
2024-02-28T13:35:22.671Z,14.35
2024-02-28T13:38:07.941Z,13.18
2024-02-28T13:40:52.088Z,12.57
2024-02-28T13:43:35.486Z,13.45
2024-02-28T13:46:20.614Z,13.30
2024-02-28T13:49:05.817Z,13.40
2024-02-28T13:51:50.700Z,11.02
2024-02-28T13:54:36.133Z,12.93
2024-02-28T13:57:19.642Z,12.82
2024-02-28T14:00:07.785Z,12.40
2024-02-28T14:02:51.440Z,13.73
2024-02-28T14:05:34.934Z,12.05
2024-02-28T14:08:18.788Z,12.80
2024-02-28T14:11:03.797Z,13.20
2024-02-28T14:13:47.261Z,13.05
2024-02-28T14:16:33.497Z,12.68
2024-02-28T14:19:17.346Z,15.20
2024-02-28T14:22:01.007Z,14.95
2024-02-28T14:24:44.602Z,13.43
2024-02-28T14:27:34.247Z,13.80
2024-02-28T14:30:17.924Z,14.77
2024-02-28T14:33:01.732Z,14.40
2024-02-28T14:35:45.072Z,14.43
2024-02-28T14:38:28.523Z,14.60
2024-02-28T14:41:12.471Z,14.30
2024-02-28T14:43:57.719Z,14.63
2024-02-28T14:46:42.208Z,15.63
2024-02-28T14:49:25.607Z,15.65
2024-02-28T14:52:09.266Z,14.98
2024-02-28T14:54:52.858Z,17.55
2024-02-28T14:57:37.942Z,14.57
2024-02-28T15:00:24.721Z,13.73
2024-02-28T15:03:08.214Z,15.48
2024-02-28T15:05:52.177Z,15.10
2024-02-28T15:08:35.766Z,15.65
2024-02-28T15:11:20.265Z,16.42
2024-02-28T15:14:04.008Z,16.02
2024-02-28T15:16:48.934Z,17.05
2024-02-28T15:19:32.412Z,16.30
2024-02-28T15:22:15.828Z,15.23
2024-02-28T15:24:59.324Z,14.77
2024-02-28T15:27:43.926Z,14.82
2024-02-28T15:30:27.666Z,15.30
2024-02-28T15:33:12.825Z,14.15
2024-02-28T15:35:56.865Z,13.27
2024-02-28T15:38:40.893Z,13.80
2024-02-28T15:41:25.102Z,14.45
2024-02-28T15:44:08.527Z,12.90
2024-02-28T15:46:51.937Z,14.43
2024-02-28T15:49:40.917Z,11.80
2024-02-28T15:52:25.189Z,12.25
2024-02-28T15:55:08.851Z,12.20
2024-02-28T15:57:52.261Z,10.93
2024-02-28T16:00:35.769Z,10.70
2024-02-28T16:03:19.966Z,11.25
2024-02-28T16:06:05.131Z,11.05
2024-02-28T16:08:48.537Z,9.48
2024-02-28T16:11:32.535Z,11.35
2024-02-28T16:14:16.262Z,12.05
2024-02-28T16:16:59.644Z,11.43
2024-02-28T16:19:43.112Z,12.88
2024-02-28T16:22:28.327Z,10.63
2024-02-28T16:25:12.191Z,11.57
2024-02-28T16:27:55.645Z,11.80
2024-02-28T16:30:44.363Z,11.45
2024-02-28T16:33:28.195Z,11.82
2024-02-28T16:36:12.451Z,12.07
2024-02-28T16:38:57.213Z,11.00
2024-02-28T16:41:40.729Z,11.10
2024-02-28T16:44:24.505Z,11.60
2024-02-28T16:47:08.249Z,12.45
2024-02-28T16:49:51.595Z,10.50
2024-02-28T16:52:35.049Z,11.07
2024-02-28T16:55:20.084Z,8.77
2024-02-28T16:58:06.071Z,8.18
2024-02-28T17:00:50.180Z,8.05
2024-02-28T17:03:33.682Z,7.85
2024-02-28T17:06:17.472Z,7.80
2024-02-28T17:09:00.875Z,8.98
2024-02-28T17:11:45.811Z,7.20
2024-02-28T17:14:29.385Z,8.65
2024-02-28T17:17:13.555Z,8.38
2024-02-28T17:19:58.332Z,7.68
2024-02-28T17:22:42.592Z,7.68
2024-02-28T17:25:26.004Z,9.65
2024-02-28T17:28:11.806Z,9.57
2024-02-28T17:30:55.337Z,9.77
2024-02-28T17:33:39.037Z,9.13
2024-02-28T17:36:22.814Z,9.32
2024-02-28T17:39:07.146Z,8.63
2024-02-28T17:41:51.271Z,10.02
2024-02-28T17:44:37.184Z,9.98
2024-02-28T17:47:20.618Z,9.10
2024-02-28T17:50:05.070Z,9.07
2024-02-28T17:52:48.594Z,10.85
2024-02-28T17:55:32.400Z,9.13
2024-02-28T17:58:15.791Z,9.20
2024-02-28T18:01:03.334Z,11.07
2024-02-28T18:03:46.949Z,11.50
2024-02-28T18:06:30.454Z,11.88
2024-02-28T18:09:18.193Z,10.68
2024-02-28T18:12:02.439Z,12.07
2024-02-28T18:14:45.855Z,11.88
2024-02-28T18:17:30.772Z,11.90
2024-02-28T18:20:14.837Z,13.43
2024-02-28T18:22:58.601Z,13.02
2024-02-28T18:25:42.004Z,14.95
2024-02-28T18:28:25.351Z,14.13
2024-02-28T18:31:08.947Z,14.20
2024-02-28T18:33:54.505Z,15.15
2024-02-28T18:36:37.944Z,14.07
2024-02-28T18:39:21.320Z,14.43
2024-02-28T18:42:04.999Z,13.80
2024-02-28T18:44:48.431Z,14.35
2024-02-28T18:47:31.956Z,11.90
2024-02-28T18:50:16.789Z,12.98
2024-02-28T18:53:00.220Z,11.40
2024-02-28T18:55:43.921Z,13.52
2024-02-28T18:58:27.378Z,13.68
2024-02-28T19:01:11.563Z,11.50
2024-02-28T19:03:56.937Z,11.70
2024-02-28T19:06:46.074Z,10.70
2024-02-28T19:09:29.521Z,12.18
2024-02-28T19:12:12.910Z,10.95
2024-02-28T19:14:56.291Z,12.05
2024-02-28T19:17:39.846Z,12.95
2024-02-28T19:20:23.768Z,11.50
2024-02-28T19:23:08.732Z,11.05
2024-02-28T19:25:52.136Z,13.02
2024-02-28T19:28:35.836Z,12.65
2024-02-28T19:31:19.362Z,13.38
2024-02-28T19:34:02.895Z,12.63
2024-02-28T19:36:46.379Z,13.38
2024-02-28T19:39:31.582Z,12.45
2024-02-28T19:42:15.080Z,14.02
2024-02-28T19:44:58.892Z,10.85
2024-02-28T19:47:42.599Z,11.77
2024-02-28T19:50:26.504Z,10.65
2024-02-28T19:53:09.906Z,11.00
2024-02-28T19:55:54.730Z,11.32
2024-02-28T19:58:38.231Z,11.98
2024-02-28T20:01:22.190Z,11.20
2024-02-28T20:04:06.656Z,12.13
2024-02-28T20:06:50.196Z,12.25
2024-02-28T20:09:35.999Z,11.73
2024-02-28T20:12:21.140Z,11.85
2024-02-28T20:15:04.745Z,10.60
2024-02-28T20:17:48.193Z,12.05
2024-02-28T20:20:31.802Z,11.80
2024-02-28T20:23:17.822Z,12.38
2024-02-28T20:26:04.554Z,13.00
2024-02-28T20:28:49.432Z,11.85
2024-02-28T20:31:32.777Z,11.15
2024-02-28T20:34:16.718Z,11.65
2024-02-28T20:37:00.469Z,12.05
2024-02-28T20:39:44.181Z,11.73
2024-02-28T20:42:27.870Z,12.85
2024-02-28T20:45:13.289Z,12.27
2024-02-28T20:47:57.746Z,13.82
2024-02-28T20:50:41.179Z,11.65
2024-02-28T20:53:25.173Z,14.13
2024-02-28T20:56:09.793Z,12.48
2024-02-28T20:58:55.241Z,13.07
2024-02-28T21:01:40.635Z,13.60
2024-02-28T21:04:25.102Z,12.57
2024-02-28T21:07:09.894Z,12.38
2024-02-28T21:09:53.449Z,14.40
2024-02-28T21:12:39.866Z,13.43
2024-02-28T21:15:23.788Z,13.60
2024-02-28T21:18:09.138Z,12.52
2024-02-28T21:20:53.751Z,13.65
2024-02-28T21:23:37.238Z,12.48
2024-02-28T21:26:20.905Z,12.52
2024-02-28T21:29:05.151Z,11.75
2024-02-28T21:31:48.504Z,11.75
2024-02-28T21:34:33.520Z,10.30
2024-02-28T21:37:17.645Z,11.68
2024-02-28T21:40:01.694Z,13.65
2024-02-28T21:42:45.335Z,10.93
2024-02-28T21:45:28.896Z,11.75
2024-02-28T21:48:15.509Z,11.35
2024-02-28T21:51:00.733Z,11.35
2024-02-28T21:53:44.154Z,11.25
2024-02-28T21:56:27.644Z,10.82
2024-02-28T21:59:11.096Z,10.00
2024-02-28T22:01:54.695Z,11.48
2024-02-28T22:04:38.182Z,12.02
2024-02-28T22:07:23.150Z,12.07
2024-02-28T22:10:07.745Z,11.60
2024-02-28T22:12:51.823Z,12.93
2024-02-28T22:15:35.330Z,11.52
2024-02-28T22:18:19.178Z,11.98
2024-02-28T22:21:02.719Z,12.32
2024-02-28T22:23:47.893Z,12.30
2024-02-28T22:26:31.423Z,10.88
2024-02-28T22:29:14.856Z,11.52
2024-02-28T22:31:58.316Z,11.30
2024-02-28T22:34:41.922Z,11.15
2024-02-28T22:37:25.358Z,10.93
2024-02-28T22:40:12.293Z,11.18
2024-02-28T22:42:56.159Z,9.85
2024-02-28T22:45:41.480Z,14.20
2024-02-28T22:48:25.022Z,13.32
2024-02-28T22:51:08.545Z,18.23
2024-02-28T22:53:52.388Z,20.77
2024-02-28T22:56:37.695Z,17.20
2024-02-28T22:59:21.857Z,12.25
2024-02-28T23:02:05.580Z,14.38
2024-02-28T23:04:48.992Z,13.80
2024-02-28T23:07:32.712Z,10.38
2024-02-28T23:10:20.467Z,10.80
2024-02-28T23:13:05.570Z,10.52
2024-02-28T23:15:49.119Z,10.18
2024-02-28T23:18:32.581Z,8.90
2024-02-28T23:21:16.197Z,8.00
2024-02-28T23:23:59.578Z,8.30
2024-02-28T23:26:43.050Z,7.95
2024-02-28T23:29:29.073Z,7.85
2024-02-28T23:32:12.920Z,6.88
2024-02-28T23:34:56.373Z,7.15
2024-02-28T23:37:39.841Z,7.95
2024-02-28T23:40:23.804Z,6.88
2024-02-28T23:43:07.654Z,7.28
2024-02-28T23:45:52.620Z,7.55
2024-02-28T23:48:36.056Z,6.65
2024-02-28T23:51:20.218Z,6.85
2024-02-28T23:54:03.772Z,7.28
2024-02-28T23:56:47.152Z,7.55
2024-02-28T23:59:30.782Z,7.90
